createdAt,value
2019-04-11T00:01:10.157Z,11.37
2019-04-11T00:03:57.965Z,10.80
2019-04-11T00:09:20.726Z,14.33
2019-04-11T00:11:50.337Z,13.60
2019-04-11T00:14:20.071Z,11.00
2019-04-11T00:16:50.233Z,9.73
2019-04-11T00:19:37.988Z,11.50
2019-04-11T00:22:25.762Z,10.97
2019-04-11T00:24:55.434Z,14.30
2019-04-11T00:27:24.631Z,11.17
2019-04-11T00:29:55.475Z,11.97
2019-04-11T00:32:44.136Z,12.87
2019-04-11T00:35:32.030Z,10.77
2019-04-11T00:38:01.420Z,13.20
2019-04-11T00:40:30.667Z,12.70
2019-04-11T00:42:59.162Z,11.63
2019-04-11T00:45:47.694Z,13.40
2019-04-11T00:48:17.601Z,12.93
2019-04-11T00:51:07.606Z,12.40
2019-04-11T00:56:12.331Z,14.60
2019-04-11T00:59:00.620Z,12.87
2019-04-11T01:01:29.145Z,16.20
2019-04-11T01:06:45.150Z,13.00
2019-04-11T01:09:13.602Z,12.60
2019-04-11T01:12:02.398Z,10.70
2019-04-11T01:14:32.034Z,14.60
2019-04-11T01:19:51.163Z,16.40
2019-04-11T01:22:22.129Z,16.50
2019-04-11T01:28:04.694Z,12.17
2019-04-11T01:34:10.628Z,16.80
2019-04-11T01:36:59.657Z,13.70
2019-04-11T01:39:47.679Z,13.30
2019-04-11T01:45:45.559Z,15.30
2019-04-11T01:51:23.683Z,14.83
2019-04-11T01:53:52.212Z,14.17
2019-04-11T01:59:13.929Z,12.23
2019-04-11T02:02:01.757Z,15.40
2019-04-11T02:04:49.335Z,12.30
2019-04-11T02:07:37.104Z,14.17
2019-04-11T02:10:45.482Z,14.50
2019-04-11T02:13:34.177Z,12.93
2019-04-11T02:19:32.369Z,13.00
2019-04-11T02:22:20.181Z,13.03
2019-04-11T02:25:08.163Z,12.60
2019-04-11T02:30:47.680Z,18.10
2019-04-11T02:33:17.715Z,15.93
2019-04-11T02:36:27.095Z,21.43
2019-04-11T02:42:45.497Z,13.37
2019-04-11T02:46:08.790Z,11.47
2019-04-11T02:48:24.538Z,22.80
2019-04-11T02:51:14.629Z,10.70
2019-04-11T02:53:45.171Z,11.73
2019-04-11T03:02:19.386Z,12.83
2019-04-11T03:05:07.636Z,15.10
2019-04-11T03:07:57.985Z,12.47
2019-04-11T03:10:27.131Z,12.10
2019-04-11T03:13:38.083Z,13.13
2019-04-11T03:16:38.119Z,11.63
2019-04-11T03:19:47.741Z,12.33
2019-04-11T03:22:26.952Z,11.60
2019-04-11T03:28:14.917Z,13.00
2019-04-11T03:39:56.835Z,15.33
2019-04-11T03:43:04.315Z,12.80
2019-04-11T03:46:15.952Z,24.33
2019-04-11T03:54:36.262Z,13.30
2019-04-11T04:00:35.424Z,14.43
2019-04-11T04:03:01.505Z,24.50
2019-04-11T04:06:10.153Z,13.40
2019-04-11T04:09:20.898Z,11.93
2019-04-11T04:18:21.210Z,18.87
2019-04-11T04:21:31.188Z,20.03
2019-04-11T04:24:03.226Z,17.40
2019-04-11T04:27:10.421Z,14.53
2019-04-11T04:32:33.781Z,20.17
2019-04-11T04:41:39.378Z,9.47
2019-04-11T04:44:24.234Z,9.73
2019-04-11T04:49:28.167Z,9.00
2019-04-11T04:51:57.153Z,8.93
2019-04-11T04:54:25.700Z,8.17
2019-04-11T04:56:54.661Z,9.40
2019-04-11T04:59:44.816Z,8.83
2019-04-11T05:02:14.976Z,8.73
2019-04-11T05:04:45.779Z,17.10
2019-04-11T05:07:38.000Z,9.60
2019-04-11T05:10:44.869Z,9.30
2019-04-11T05:16:16.804Z,8.10
2019-04-11T05:21:12.779Z,8.33
2019-04-11T05:23:41.881Z,7.40
2019-04-11T05:26:29.489Z,8.17
2019-04-11T05:28:57.944Z,12.93
2019-04-11T05:31:46.977Z,7.00
2019-04-11T05:34:16.132Z,7.03
2019-04-11T05:36:44.995Z,10.10
2019-04-11T05:39:16.002Z,8.33
2019-04-11T05:41:46.807Z,7.57
2019-04-11T05:44:15.136Z,7.60
2019-04-11T05:46:52.378Z,8.13
2019-04-11T05:52:22.072Z,7.63
2019-04-11T06:01:14.434Z,7.30
2019-04-11T06:03:45.330Z,7.73
2019-04-11T06:12:17.166Z,5.97
2019-04-11T06:15:05.989Z,7.80
2019-04-11T06:17:34.479Z,8.17
2019-04-11T06:20:41.389Z,7.60
2019-04-11T06:23:29.627Z,7.80
2019-04-11T06:26:18.747Z,7.60
2019-04-11T06:31:46.053Z,9.47
2019-04-11T06:34:15.533Z,7.93
2019-04-11T06:37:03.829Z,7.73
2019-04-11T06:39:51.610Z,7.67
2019-04-11T06:42:39.351Z,6.90
2019-04-11T06:45:48.113Z,8.83
2019-04-11T06:48:38.067Z,7.20
2019-04-11T06:51:46.343Z,6.97
2019-04-11T06:54:33.942Z,8.00
2019-04-11T07:08:02.087Z,7.80
2019-04-11T07:10:51.082Z,10.33
2019-04-11T07:13:39.955Z,12.03
2019-04-11T07:16:09.042Z,8.50
2019-04-11T07:18:57.737Z,10.60
2019-04-11T07:24:34.621Z,8.40
2019-04-11T07:30:11.454Z,8.10
2019-04-11T07:32:40.625Z,8.53
2019-04-11T07:35:29.426Z,7.53
2019-04-11T07:37:58.239Z,7.83
2019-04-11T07:40:47.570Z,7.90
2019-04-11T07:43:18.510Z,8.83
2019-04-11T07:46:05.482Z,6.47
2019-04-11T07:48:33.930Z,10.67
2019-04-11T07:51:40.967Z,10.47
2019-04-11T07:54:49.331Z,6.07
2019-04-11T08:00:17.146Z,6.37
2019-04-11T08:03:06.380Z,6.17
2019-04-11T08:06:15.533Z,10.33
2019-04-11T08:14:46.461Z,6.97
2019-04-11T08:17:39.056Z,8.33
2019-04-11T08:20:44.162Z,8.07
2019-04-11T08:23:52.541Z,9.27
2019-04-11T08:26:59.408Z,7.10
2019-04-11T08:32:36.130Z,14.07
2019-04-11T08:35:44.448Z,7.17
2019-04-11T08:38:53.064Z,8.90
2019-04-11T08:41:42.209Z,7.63
2019-04-11T08:44:11.923Z,10.43
2019-04-11T08:49:50.185Z,8.47
2019-04-11T08:52:38.519Z,9.17
2019-04-11T08:55:53.603Z,7.27
2019-04-11T09:01:25.462Z,6.20
2019-04-11T09:04:14.972Z,6.13
2019-04-11T09:15:10.794Z,5.63
2019-04-11T09:25:54.698Z,4.97
2019-04-11T09:28:43.925Z,8.70
2019-04-11T09:31:51.722Z,4.80
2019-04-11T09:34:39.311Z,6.33
2019-04-11T09:42:43.011Z,6.37
2019-04-11T09:45:52.601Z,6.93
2019-04-11T09:48:42.293Z,5.30
2019-04-11T09:51:49.919Z,8.07
2019-04-11T09:54:37.651Z,8.00
2019-04-11T10:00:55.007Z,5.60
2019-04-11T10:06:34.364Z,7.30
2019-04-11T10:15:47.247Z,4.27
2019-04-11T10:18:38.686Z,5.27
2019-04-11T10:24:01.051Z,5.23
2019-04-11T10:29:39.782Z,8.77
2019-04-11T10:35:19.025Z,6.23
2019-04-11T10:46:15.414Z,5.33
2019-04-11T10:49:03.825Z,5.33
2019-04-11T10:51:51.433Z,4.30
2019-04-11T10:54:19.889Z,5.30
2019-04-11T11:02:31.826Z,4.80
2019-04-11T11:05:01.074Z,8.93
2019-04-11T11:07:50.954Z,4.83
2019-04-11T11:10:39.730Z,6.70
2019-04-11T11:13:28.352Z,5.97
2019-04-11T11:26:35.632Z,6.17
2019-04-11T11:29:45.216Z,5.73
2019-04-11T11:37:47.264Z,6.77
2019-04-11T11:43:25.263Z,5.83
2019-04-11T11:46:14.129Z,5.50
2019-04-11T11:54:17.580Z,6.10
2019-04-11T11:57:06.642Z,9.90
2019-04-11T11:59:55.158Z,6.00
2019-04-11T12:03:03.499Z,4.53
2019-04-11T12:08:26.553Z,5.97
2019-04-11T12:14:04.071Z,4.53
2019-04-11T12:16:59.642Z,5.40
2019-04-11T12:20:09.681Z,5.00
2019-04-11T12:25:41.222Z,10.03
2019-04-11T12:28:29.754Z,5.40
2019-04-11T12:33:57.706Z,4.87
2019-04-11T12:39:53.632Z,4.80
2019-04-11T12:45:51.211Z,4.13
2019-04-11T12:51:48.726Z,5.17
2019-04-11T12:57:25.422Z,5.37
2019-04-11T13:00:12.998Z,5.03
2019-04-11T13:03:00.634Z,4.53
2019-04-11T13:06:09.009Z,4.50
2019-04-11T13:14:15.140Z,4.97
2019-04-11T13:19:51.827Z,4.50
2019-04-11T13:25:49.378Z,6.00
2019-04-11T13:28:37.168Z,6.00
2019-04-11T13:31:24.772Z,5.03
2019-04-11T13:37:01.955Z,4.80
2019-04-11T13:39:49.616Z,4.20
2019-04-11T13:42:37.220Z,4.83
2019-04-11T13:45:45.592Z,8.73
2019-04-11T13:48:33.555Z,5.20
2019-04-11T13:54:10.316Z,3.77
2019-04-11T13:56:57.901Z,4.50
2019-04-11T13:59:45.543Z,4.00
2019-04-11T14:02:50.599Z,4.37
2019-04-11T14:16:19.062Z,3.67
2019-04-11T14:19:07.190Z,4.50
2019-04-11T14:22:15.765Z,4.40
2019-04-11T14:25:03.409Z,4.40
2019-04-11T14:30:52.471Z,4.40
2019-04-11T14:39:09.001Z,6.30
2019-04-11T14:41:56.589Z,9.03
2019-04-11T14:53:28.307Z,6.40
2019-04-11T14:56:15.885Z,5.73
2019-04-11T14:59:03.542Z,5.00
2019-04-11T15:04:43.714Z,4.73
2019-04-11T15:10:18.703Z,6.10
2019-04-11T15:16:14.791Z,5.37
2019-04-11T15:21:51.538Z,6.03
2019-04-11T15:27:28.293Z,5.03
2019-04-11T15:33:05.007Z,5.23
2019-04-11T15:39:00.743Z,4.93
2019-04-11T15:44:37.427Z,9.03
2019-04-11T15:47:25.000Z,6.03
2019-04-11T15:50:12.616Z,6.00
2019-04-11T15:56:08.630Z,5.00
2019-04-11T16:01:45.315Z,6.37
2019-04-11T16:04:32.957Z,5.77
2019-04-11T16:07:41.368Z,5.40
2019-04-11T16:10:49.740Z,6.60
2019-04-11T16:16:16.889Z,11.33
2019-04-11T16:19:04.465Z,6.00
2019-04-11T16:21:54.685Z,4.97
2019-04-11T16:27:49.895Z,4.90
2019-04-11T16:30:58.267Z,8.67
2019-04-11T16:36:40.714Z,6.43
2019-04-11T16:42:17.355Z,6.20
2019-04-11T16:45:04.997Z,5.17
2019-04-11T16:50:32.136Z,5.53
2019-04-11T16:53:00.595Z,5.00
2019-04-11T16:55:48.444Z,5.00
2019-04-11T16:58:19.545Z,5.60
2019-04-11T17:00:52.127Z,5.30
2019-04-11T17:03:17.496Z,5.60
2019-04-11T17:06:05.142Z,6.57
2019-04-11T17:08:56.103Z,6.70
2019-04-11T17:11:26.732Z,5.87
2019-04-11T17:13:56.990Z,4.53
2019-04-11T17:16:23.519Z,4.87
2019-04-11T17:18:52.051Z,5.83
2019-04-11T17:24:08.047Z,5.40
2019-04-11T17:26:55.713Z,5.60
2019-04-11T17:29:25.010Z,5.30
2019-04-11T17:37:36.703Z,5.63
2019-04-11T17:40:45.073Z,5.80
2019-04-11T17:43:32.758Z,6.53
2019-04-11T17:46:20.403Z,5.50
2019-04-11T17:48:50.402Z,5.53
2019-04-11T17:51:19.130Z,5.37
2019-04-11T17:53:47.580Z,5.30
2019-04-11T17:56:16.119Z,5.80
2019-04-11T17:58:44.590Z,5.70
2019-04-11T18:01:13.111Z,5.70
2019-04-11T18:03:42.111Z,4.97
2019-04-11T18:06:11.773Z,5.77
2019-04-11T18:08:59.462Z,6.10
2019-04-11T18:11:47.235Z,6.30
2019-04-11T18:17:09.457Z,5.57
2019-04-11T18:19:38.014Z,7.07
2019-04-11T18:25:14.839Z,6.97
2019-04-11T18:27:43.286Z,6.17
2019-04-11T18:30:53.763Z,5.87
2019-04-11T18:33:21.884Z,19.03
2019-04-11T18:35:50.406Z,6.40
2019-04-11T18:38:18.896Z,6.10
2019-04-11T18:41:06.611Z,5.50
2019-04-11T18:46:29.773Z,5.80
2019-04-11T18:49:19.443Z,5.57
2019-04-11T18:51:47.617Z,4.93
2019-04-11T18:54:16.075Z,7.33
2019-04-11T18:56:44.532Z,5.83
2019-04-11T19:04:58.879Z,5.30
2019-04-11T19:07:28.202Z,5.97
2019-04-11T19:09:57.578Z,4.87
2019-04-11T19:15:00.433Z,5.57
2019-04-11T19:17:48.230Z,8.80
2019-04-11T19:20:56.584Z,6.67
2019-04-11T19:25:59.169Z,6.07
2019-04-11T19:28:27.618Z,5.37
2019-04-11T19:31:15.290Z,5.77
2019-04-11T19:33:43.766Z,4.77
2019-04-11T19:36:12.852Z,6.23
2019-04-11T19:41:35.606Z,3.90
2019-04-11T19:44:44.016Z,5.30
2019-04-11T19:47:12.462Z,5.83
2019-04-11T19:49:40.911Z,5.93
2019-04-11T19:54:43.466Z,4.67
2019-04-11T19:57:11.951Z,5.10
2019-04-11T19:59:59.718Z,4.00
2019-04-11T20:02:47.318Z,3.67
2019-04-11T20:05:34.909Z,4.10
2019-04-11T20:08:22.582Z,5.20
2019-04-11T20:10:51.026Z,4.13
2019-04-11T20:13:38.906Z,4.40
2019-04-11T20:16:07.352Z,4.47
2019-04-11T20:18:35.798Z,4.30
2019-04-11T20:21:23.773Z,3.93
2019-04-11T20:23:53.774Z,7.83
2019-04-11T20:26:41.579Z,4.83
2019-04-11T20:29:10.030Z,4.57
2019-04-11T20:31:57.773Z,4.87
2019-04-11T20:34:45.366Z,5.33
2019-04-11T20:37:13.854Z,4.80
2019-04-11T20:39:46.288Z,5.80
2019-04-11T20:42:12.471Z,4.80
2019-04-11T20:47:16.790Z,4.10
2019-04-11T20:52:20.898Z,3.73
2019-04-11T20:54:49.344Z,3.93
2019-04-11T20:57:25.690Z,4.33
2019-04-11T20:59:48.004Z,5.00
2019-04-11T21:02:35.794Z,4.93
2019-04-11T21:08:18.338Z,3.87
2019-04-11T21:11:06.114Z,4.40
2019-04-11T21:13:38.164Z,4.70
2019-04-11T21:16:23.972Z,8.83
2019-04-11T21:21:26.660Z,4.00
2019-04-11T21:23:55.166Z,4.60
2019-04-11T21:26:23.600Z,4.40
2019-04-11T21:28:52.050Z,4.30
2019-04-11T21:31:20.496Z,5.70
2019-04-11T21:34:08.231Z,5.63
2019-04-11T21:36:36.676Z,5.17
2019-04-11T21:39:45.089Z,8.80
2019-04-11T21:42:13.537Z,4.13
2019-04-11T21:44:41.985Z,8.10
2019-04-11T21:47:29.903Z,4.47
2019-04-11T21:49:58.350Z,4.00
2019-04-11T21:55:20.683Z,5.00
2019-04-11T21:58:08.530Z,3.67
2019-04-11T22:01:16.874Z,4.03
2019-04-11T22:04:27.164Z,4.00
2019-04-11T22:07:35.715Z,3.37
2019-04-11T22:10:44.115Z,4.73
2019-04-11T22:13:12.576Z,3.40
2019-04-11T22:16:00.262Z,4.17
2019-04-11T22:18:48.025Z,4.50
2019-04-11T22:21:16.518Z,3.53
2019-04-11T22:23:48.995Z,3.40
2019-04-11T22:26:15.146Z,5.93
2019-04-11T22:28:43.656Z,4.00
2019-04-11T22:31:12.104Z,5.53
2019-04-11T22:37:09.574Z,3.37
2019-04-11T22:39:38.088Z,3.67
2019-04-11T22:42:25.898Z,4.00
2019-04-11T22:44:54.351Z,4.10
2019-04-11T22:47:22.807Z,3.50
2019-04-11T22:52:25.261Z,3.67
2019-04-11T22:57:34.198Z,3.90
2019-04-11T23:00:02.712Z,3.80
2019-04-11T23:02:50.317Z,5.10
2019-04-11T23:05:18.766Z,3.97
2019-04-11T23:07:48.299Z,4.40
2019-04-11T23:10:36.607Z,4.97
2019-04-11T23:13:05.134Z,4.03
2019-04-11T23:15:33.574Z,4.23
2019-04-11T23:20:35.678Z,3.80
2019-04-11T23:23:04.134Z,3.80
2019-04-11T23:25:32.636Z,4.17
2019-04-11T23:28:01.076Z,7.03
2019-04-11T23:30:29.518Z,3.10
2019-04-11T23:35:51.791Z,3.43
2019-04-11T23:41:14.662Z,4.23
2019-04-11T23:44:02.510Z,3.53
2019-04-11T23:46:30.956Z,3.57
2019-04-11T23:48:59.410Z,3.60
2019-04-11T23:51:27.894Z,3.17
2019-04-11T23:54:22.959Z,3.97
